Airfield :
LOGIN :

Register | Disclaimer

   EN    FR    IT 

 










Legend :    VFR   Marginal VFR   IFR   Intensive IFR   Very Intensive IFR
Visi :
Ceiling :
>= 8 km
>= 3000ft
5 to 8 km
1000 to 3000 ft
1500m to 5 km
500 to 1000 ft
800 to 1500m
200 to 500 ft
< 800m
< 200 ft
Symbols :   Thunderstorms  Fog  Heavy snow  Heavy precipitations  Wind > 20 kt
SIGMETs :     Misc.  Thunderstorms  Icing  Turbulence  Mountain Waves  Volcanic Ashes






- Airport Elevation : 13 ft
- IATA code : OST


EBOS - Oostend bruges Int.

CURRENT METAR :
  • 291120Z 04008KT 9999 FEW025CB BKN037 12/08 Q1003 TEMPO 4000 SHRA

EXPIRED METARs :
  • 291050Z 32006KT 280V360 9999 FEW025CB SCT040 14/07 Q1003 TEMPO 4000 SHRA
  • 291020Z 32006KT 9999 FEW025CB 14/08 Q1003 TEMPO 4000 SHRA
  • 290950Z 32007KT 290V350 9999 FEW030TCU 13/07 Q1003 NOSIG
  • 290920Z 30005KT 270V330 9999 FEW030TCU 13/07 Q1002 NOSIG

TAF TAF EBOS
Valid from the 29 at 12:00 until the 30 at 18:00 UTC


291105Z 2912/3018 23005KT 9999 SCT025
PROB30
TEMPO 2912/3002 4000 SHRA
TEMPO 3002/3009 3000 BR
PROB30
TEMPO 3004/3008 1200 BCFG
BECMG 3012/3014 21012KT



MET'MAP, your aeronautical weather chart ! - Copyright ORBIFLY December 2007 - Disclaimer

ORBIFLY MET'MAP TEAM :

Programming & Development : Alexandra Zaïnal
Original concept : Baudouin d'Aumeries
Technical & hardware support : Manuel Goepfert
Assistance : Marc-Olivier Méhu




SOURCES & CREDITS :

   NOAA